createdAt,value
2022-11-07T00:01:46.604Z,6.40
2022-11-07T00:04:14.564Z,6.50
2022-11-07T00:06:41.980Z,6.60
2022-11-07T00:09:09.315Z,6.60
2022-11-07T00:11:36.842Z,6.70
2022-11-07T00:14:04.260Z,6.70
2022-11-07T00:16:32.749Z,6.80
2022-11-07T00:19:00.109Z,6.90
2022-11-07T00:21:27.483Z,7.00
2022-11-07T00:23:54.781Z,7.00
2022-11-07T00:26:22.217Z,7.10
2022-11-07T00:28:49.909Z,7.10
2022-11-07T00:31:19.337Z,7.10
2022-11-07T00:33:46.996Z,7.20
2022-11-07T00:36:22.934Z,7.30
2022-11-07T00:38:50.482Z,7.20
2022-11-07T00:41:17.912Z,7.30
2022-11-07T00:43:45.672Z,7.30
2022-11-07T00:46:15.046Z,7.30
2022-11-07T00:48:42.836Z,7.30
2022-11-07T00:51:17.304Z,7.30
2022-11-07T00:53:44.951Z,7.20
2022-11-07T00:56:14.941Z,7.20
2022-11-07T00:58:42.951Z,7.20
2022-11-07T01:01:22.335Z,7.20
2022-11-07T01:04:08.496Z,7.20
2022-11-07T01:06:38.299Z,7.20
2022-11-07T01:09:07.598Z,7.30
2022-11-07T01:11:36.468Z,7.30
2022-11-07T01:14:04.196Z,7.30
2022-11-07T01:16:34.809Z,7.30
2022-11-07T01:19:03.598Z,7.40
2022-11-07T01:21:30.984Z,7.30
2022-11-07T01:23:58.366Z,7.30
2022-11-07T01:26:25.890Z,7.30
2022-11-07T01:28:53.324Z,7.20
2022-11-07T01:31:21.103Z,7.20
2022-11-07T01:33:48.579Z,7.20
2022-11-07T01:36:17.939Z,7.10
2022-11-07T01:38:48.591Z,7.10
2022-11-07T01:41:22.149Z,7.10
2022-11-07T01:44:02.301Z,7.20
2022-11-07T01:46:33.591Z,7.10
2022-11-07T01:49:28.253Z,7.10
2022-11-07T01:52:33.733Z,7.10
2022-11-07T01:55:15.126Z,7.20
2022-11-07T01:57:52.368Z,7.20
2022-11-07T02:00:22.371Z,7.10
2022-11-07T02:02:54.884Z,7.00
2022-11-07T02:05:28.982Z,6.80
2022-11-07T02:07:57.165Z,6.70
2022-11-07T02:10:25.933Z,6.60
2022-11-07T02:12:54.174Z,6.50
2022-11-07T02:15:21.542Z,6.40
2022-11-07T02:17:50.030Z,6.30
2022-11-07T02:20:17.622Z,6.30
2022-11-07T02:22:56.440Z,6.30
2022-11-07T02:25:24.108Z,6.20
2022-11-07T02:28:02.114Z,6.10
2022-11-07T02:30:33.913Z,5.90
2022-11-07T02:33:02.146Z,5.80
2022-11-07T02:35:44.335Z,5.70
2022-11-07T02:38:21.571Z,5.60
2022-11-07T02:41:06.817Z,5.70
2022-11-07T02:43:38.235Z,5.60
2022-11-07T02:46:09.118Z,5.60
2022-11-07T02:48:45.363Z,5.60
2022-11-07T02:51:12.847Z,5.50
2022-11-07T02:53:40.324Z,5.30
2022-11-07T02:56:08.211Z,5.20
2022-11-07T02:58:35.993Z,5.20
2022-11-07T03:01:07.196Z,5.10
2022-11-07T03:03:42.942Z,5.00
2022-11-07T03:06:12.810Z,5.00
2022-11-07T03:08:40.836Z,4.80
2022-11-07T03:11:08.191Z,4.70
2022-11-07T03:13:35.858Z,4.60
2022-11-07T03:16:11.244Z,4.60
2022-11-07T03:18:38.581Z,4.50
2022-11-07T03:21:06.424Z,4.60
2022-11-07T03:23:35.481Z,4.60
2022-11-07T03:26:04.024Z,4.30
2022-11-07T03:28:31.956Z,4.20
2022-11-07T03:31:04.276Z,4.20
2022-11-07T03:33:31.905Z,4.10
2022-11-07T03:35:59.345Z,4.10
2022-11-07T03:38:26.636Z,4.00
2022-11-07T03:40:54.034Z,4.00
2022-11-07T03:43:21.341Z,3.90
2022-11-07T03:45:48.680Z,3.90
2022-11-07T03:48:15.975Z,3.90
2022-11-07T03:50:43.388Z,4.10
2022-11-07T03:53:10.718Z,4.10
2022-11-07T03:55:38.046Z,3.90
2022-11-07T03:58:05.360Z,4.00
2022-11-07T04:00:32.850Z,4.00
2022-11-07T04:03:00.227Z,4.30
2022-11-07T04:05:27.660Z,4.40
2022-11-07T04:07:54.919Z,4.30
2022-11-07T04:10:22.252Z,4.40
2022-11-07T04:13:08.187Z,4.70
2022-11-07T04:15:54.058Z,4.80
2022-11-07T04:18:21.406Z,4.90
2022-11-07T04:20:48.717Z,4.90
2022-11-07T04:23:16.465Z,5.00
2022-11-07T04:26:02.625Z,5.10
2022-11-07T04:28:29.969Z,5.10
2022-11-07T04:30:57.252Z,5.20
2022-11-07T04:33:24.629Z,5.40
2022-11-07T04:35:51.999Z,5.40
2022-11-07T04:38:19.307Z,5.50
2022-11-07T04:40:56.448Z,5.70
2022-11-07T04:43:27.565Z,5.70
2022-11-07T04:45:54.872Z,5.80
2022-11-07T04:48:22.343Z,5.80
2022-11-07T04:50:50.268Z,5.90
2022-11-07T04:53:18.496Z,5.90
2022-11-07T04:55:45.834Z,6.00
2022-11-07T04:58:13.454Z,6.10
2022-11-07T05:00:40.862Z,6.10
2022-11-07T05:03:08.991Z,6.20
2022-11-07T05:05:36.461Z,6.20
2022-11-07T05:08:03.954Z,6.20
2022-11-07T05:10:31.329Z,6.20
2022-11-07T05:12:58.691Z,6.20
2022-11-07T05:15:26.062Z,6.10
2022-11-07T05:17:53.374Z,6.10
2022-11-07T05:20:28.378Z,6.10
2022-11-07T05:23:16.097Z,6.10
2022-11-07T05:25:49.551Z,6.10
2022-11-07T05:28:39.292Z,6.10
2022-11-07T05:31:08.563Z,6.20
2022-11-07T05:33:36.208Z,6.10
2022-11-07T05:36:11.544Z,5.90
2022-11-07T05:38:44.178Z,5.90
2022-11-07T05:41:12.710Z,5.90
2022-11-07T05:43:40.161Z,5.90
2022-11-07T05:46:08.152Z,5.90
2022-11-07T05:48:36.172Z,5.90
2022-11-07T05:51:05.102Z,5.80
2022-11-07T05:53:32.932Z,5.70
2022-11-07T05:56:00.339Z,5.70
2022-11-07T05:58:27.739Z,5.60
2022-11-07T06:00:55.042Z,5.60
2022-11-07T06:03:22.786Z,5.40
2022-11-07T06:05:50.138Z,5.20
2022-11-07T06:08:17.447Z,5.10
2022-11-07T06:10:44.961Z,5.00
2022-11-07T06:13:15.266Z,5.00
2022-11-07T06:15:44.453Z,4.90
2022-11-07T06:18:15.933Z,4.90
2022-11-07T06:20:43.965Z,4.80
2022-11-07T06:23:11.533Z,4.80
2022-11-07T06:25:39.899Z,4.80
2022-11-07T06:28:10.031Z,4.80
2022-11-07T06:30:37.592Z,4.80
2022-11-07T06:33:12.040Z,4.70
2022-11-07T06:35:39.621Z,4.80
2022-11-07T06:38:12.176Z,4.90
2022-11-07T06:40:41.467Z,4.90
2022-11-07T06:43:11.660Z,4.90
2022-11-07T06:45:40.324Z,4.90
2022-11-07T06:48:08.337Z,4.80
2022-11-07T06:50:35.787Z,4.80
2022-11-07T06:53:05.597Z,4.90
2022-11-07T06:55:35.098Z,5.00
2022-11-07T06:58:03.826Z,5.10
2022-11-07T07:00:33.583Z,5.10
2022-11-07T07:03:01.021Z,5.30
2022-11-07T07:05:28.996Z,5.30
2022-11-07T07:07:57.021Z,5.40
2022-11-07T07:10:25.403Z,5.50
2022-11-07T07:12:53.776Z,5.70
2022-11-07T07:15:21.663Z,5.80
2022-11-07T07:17:49.416Z,6.00
2022-11-07T07:20:16.886Z,6.10
2022-11-07T07:22:45.295Z,6.30
2022-11-07T07:25:12.733Z,6.30
2022-11-07T07:27:40.047Z,6.70
2022-11-07T07:30:08.432Z,7.00
2022-11-07T07:32:36.556Z,7.10
2022-11-07T07:35:04.740Z,7.20
2022-11-07T07:37:32.063Z,7.40
2022-11-07T07:39:59.400Z,7.50
2022-11-07T07:42:26.740Z,7.60
2022-11-07T07:44:55.073Z,7.80
2022-11-07T07:47:22.418Z,7.90
2022-11-07T07:49:49.757Z,7.90
2022-11-07T07:52:17.188Z,7.90
2022-11-07T07:54:44.603Z,7.90
2022-11-07T07:57:11.935Z,8.00
2022-11-07T07:59:48.523Z,8.00
2022-11-07T08:02:19.241Z,8.10
2022-11-07T08:04:55.436Z,8.30
2022-11-07T08:07:25.191Z,8.50
2022-11-07T08:10:40.785Z,8.60
2022-11-07T08:14:01.751Z,8.70
2022-11-07T08:16:32.541Z,9.00
2022-11-07T08:19:01.336Z,9.10
2022-11-07T08:21:28.738Z,9.20
2022-11-07T08:23:56.667Z,9.40
2022-11-07T08:26:24.720Z,9.60
2022-11-07T08:28:54.078Z,9.60
2022-11-07T08:31:21.809Z,9.60
2022-11-07T08:33:49.634Z,9.60
2022-11-07T08:36:17.061Z,9.60
2022-11-07T08:38:44.440Z,9.70
2022-11-07T08:41:11.786Z,9.80
2022-11-07T08:43:39.373Z,9.90
2022-11-07T08:46:06.932Z,10.00
2022-11-07T08:48:34.664Z,10.20
2022-11-07T08:51:03.452Z,10.20
2022-11-07T08:53:31.190Z,10.10
2022-11-07T08:56:09.936Z,10.20
2022-11-07T08:58:38.075Z,10.30
2022-11-07T09:01:07.315Z,10.50
2022-11-07T09:03:47.487Z,10.50
2022-11-07T09:06:18.432Z,10.50
2022-11-07T09:08:46.180Z,10.70
2022-11-07T09:11:15.830Z,10.90
2022-11-07T09:13:43.376Z,11.10
2022-11-07T09:16:11.528Z,11.20
2022-11-07T09:18:39.191Z,11.40
2022-11-07T09:21:06.578Z,11.80
2022-11-07T09:23:33.890Z,12.10
2022-11-07T09:26:01.515Z,12.50
2022-11-07T09:28:29.478Z,12.90
2022-11-07T09:30:58.666Z,13.20
2022-11-07T09:33:26.536Z,13.50
2022-11-07T09:35:54.296Z,13.40
2022-11-07T09:38:21.796Z,13.60
2022-11-07T09:41:08.056Z,13.60
2022-11-07T09:44:04.864Z,13.60
2022-11-07T09:47:06.928Z,13.80
2022-11-07T09:49:38.370Z,13.90
2022-11-07T09:52:24.426Z,14.10
2022-11-07T09:54:58.382Z,14.20
2022-11-07T09:57:28.138Z,14.30
2022-11-07T10:00:00.273Z,14.50
2022-11-07T10:02:32.585Z,14.60
2022-11-07T10:05:03.565Z,14.80
2022-11-07T10:08:00.709Z,14.70
2022-11-07T10:11:03.716Z,14.70
2022-11-07T10:14:30.251Z,14.70
2022-11-07T10:17:20.024Z,14.90
2022-11-07T10:20:42.763Z,14.70
2022-11-07T10:23:31.511Z,14.80
2022-11-07T10:26:10.604Z,14.80
2022-11-07T10:28:45.486Z,14.60
2022-11-07T10:31:15.058Z,14.40
2022-11-07T10:34:00.306Z,14.40
2022-11-07T10:36:32.003Z,14.20
2022-11-07T10:39:01.658Z,14.30
2022-11-07T10:41:31.731Z,14.20
2022-11-07T10:44:08.207Z,14.20
2022-11-07T10:46:45.099Z,14.20
2022-11-07T10:49:28.493Z,14.20
2022-11-07T10:52:10.458Z,14.40
2022-11-07T10:54:37.925Z,14.40
2022-11-07T10:57:16.797Z,14.60
2022-11-07T10:59:57.070Z,14.70
2022-11-07T11:02:27.432Z,14.70
2022-11-07T11:04:58.669Z,14.70
2022-11-07T11:07:33.857Z,14.60
2022-11-07T11:10:02.398Z,14.80
2022-11-07T11:12:34.535Z,14.60
2022-11-07T11:15:14.679Z,14.50
2022-11-07T11:17:42.405Z,14.60
2022-11-07T11:20:40.732Z,14.60
2022-11-07T11:23:28.362Z,14.60
2022-11-07T11:26:07.568Z,14.60
2022-11-07T11:28:50.383Z,14.70
2022-11-07T11:31:37.222Z,14.90
2022-11-07T11:34:50.822Z,15.10
2022-11-07T11:37:23.976Z,15.10
2022-11-07T11:40:09.591Z,15.20
2022-11-07T11:42:49.101Z,15.30
2022-11-07T11:45:52.635Z,15.20
2022-11-07T11:48:38.542Z,15.20
2022-11-07T11:51:37.759Z,15.20
2022-11-07T11:54:10.355Z,15.20
2022-11-07T11:56:53.672Z,15.10
2022-11-07T12:00:03.256Z,15.00
2022-11-07T12:03:35.969Z,14.80
2022-11-07T12:06:15.031Z,14.60
2022-11-07T12:09:32.318Z,14.50
2022-11-07T12:12:26.214Z,14.40
2022-11-07T12:15:29.920Z,14.40
2022-11-07T12:18:12.356Z,14.40
2022-11-07T12:21:09.760Z,14.30
2022-11-07T12:24:08.470Z,14.20
2022-11-07T12:27:08.187Z,14.10
2022-11-07T12:30:03.089Z,14.00
2022-11-07T12:33:17.395Z,14.00
2022-11-07T12:35:55.295Z,14.10
2022-11-07T12:39:01.796Z,14.20
2022-11-07T12:42:17.767Z,14.30
2022-11-07T12:45:03.906Z,14.30
2022-11-07T12:48:12.866Z,14.40
2022-11-07T12:51:05.011Z,14.40
2022-11-07T12:54:00.621Z,14.50
2022-11-07T12:56:32.930Z,14.30
2022-11-07T12:59:11.553Z,14.30
2022-11-07T13:01:51.132Z,14.10
2022-11-07T13:05:16.680Z,14.10
2022-11-07T13:07:54.120Z,14.00
2022-11-07T13:10:40.025Z,14.10
2022-11-07T13:13:33.863Z,14.10
2022-11-07T13:16:32.052Z,14.00
2022-11-07T13:19:10.457Z,14.00
2022-11-07T13:21:44.087Z,14.00
2022-11-07T13:24:22.451Z,14.00
2022-11-07T13:26:50.090Z,13.90
2022-11-07T13:29:25.092Z,14.00
2022-11-07T13:32:08.806Z,14.00
2022-11-07T13:34:57.840Z,14.00
2022-11-07T13:37:30.206Z,13.90
2022-11-07T13:40:21.461Z,14.00
2022-11-07T13:42:52.767Z,14.00
2022-11-07T13:45:47.270Z,14.10
2022-11-07T13:48:41.732Z,14.00
2022-11-07T13:51:39.806Z,14.00
2022-11-07T13:54:30.406Z,14.10
2022-11-07T13:57:07.642Z,14.20
2022-11-07T14:00:11.188Z,14.20
2022-11-07T14:02:54.190Z,14.20
2022-11-07T14:05:24.700Z,14.20
2022-11-07T14:08:37.682Z,14.10
2022-11-07T14:11:15.918Z,14.10
2022-11-07T14:13:43.679Z,14.00
2022-11-07T14:16:25.598Z,13.90
2022-11-07T14:19:03.122Z,13.80
2022-11-07T14:21:33.144Z,13.70
2022-11-07T14:24:01.032Z,13.70
2022-11-07T14:26:33.528Z,13.60
2022-11-07T14:29:02.291Z,13.60
2022-11-07T14:31:35.464Z,13.50
2022-11-07T14:34:18.688Z,13.40
2022-11-07T14:36:53.680Z,13.30
2022-11-07T14:39:23.301Z,13.30
2022-11-07T14:41:51.686Z,13.30
2022-11-07T14:44:55.710Z,13.30
2022-11-07T14:47:31.870Z,13.20
2022-11-07T14:50:01.821Z,13.00
2022-11-07T14:52:41.850Z,13.10
2022-11-07T14:55:14.318Z,13.00
2022-11-07T14:57:42.179Z,13.00
2022-11-07T15:00:19.440Z,13.00
2022-11-07T15:02:50.229Z,12.80
2022-11-07T15:05:46.640Z,12.70
2022-11-07T15:08:32.285Z,12.70
2022-11-07T15:11:20.550Z,12.60
2022-11-07T15:13:48.678Z,12.70
2022-11-07T15:16:21.961Z,12.70
2022-11-07T15:18:57.521Z,12.70
2022-11-07T15:21:38.006Z,12.50
2022-11-07T15:24:33.315Z,12.40
2022-11-07T15:27:06.620Z,12.30
2022-11-07T15:29:36.372Z,12.20
2022-11-07T15:32:17.099Z,12.10
2022-11-07T15:35:03.939Z,12.20
2022-11-07T15:37:32.755Z,12.20
2022-11-07T15:40:00.145Z,12.10
2022-11-07T15:42:27.611Z,12.00
2022-11-07T15:44:54.909Z,12.10
2022-11-07T15:47:22.541Z,12.00
2022-11-07T15:49:50.126Z,12.00
2022-11-07T15:52:17.430Z,11.80
2022-11-07T15:54:44.957Z,11.80
2022-11-07T15:57:13.133Z,11.70
2022-11-07T15:59:40.561Z,11.70
2022-11-07T16:02:15.580Z,11.60
2022-11-07T16:04:43.888Z,11.60
2022-11-07T16:07:16.710Z,11.50
2022-11-07T16:09:44.461Z,11.50
2022-11-07T16:12:20.818Z,11.40
2022-11-07T16:14:48.217Z,11.30
2022-11-07T16:17:17.860Z,11.30
2022-11-07T16:19:45.561Z,11.20
2022-11-07T16:22:14.832Z,11.20
2022-11-07T16:24:42.201Z,11.20
2022-11-07T16:27:15.994Z,11.20
2022-11-07T16:29:44.498Z,11.10
2022-11-07T16:32:18.102Z,11.10
2022-11-07T16:34:46.602Z,11.00
2022-11-07T16:37:13.960Z,11.00
2022-11-07T16:39:41.253Z,11.00
2022-11-07T16:42:15.116Z,11.00
2022-11-07T16:44:42.647Z,11.10
2022-11-07T16:47:14.610Z,11.10
2022-11-07T16:49:42.298Z,11.10
2022-11-07T16:52:15.285Z,11.10
2022-11-07T16:54:43.290Z,11.20
2022-11-07T16:57:19.939Z,11.20
2022-11-07T16:59:47.515Z,11.30
2022-11-07T17:02:21.807Z,11.40
2022-11-07T17:04:54.270Z,11.40
2022-11-07T17:07:23.324Z,11.40
2022-11-07T17:09:51.153Z,11.30
2022-11-07T17:12:21.534Z,11.30
2022-11-07T17:14:49.518Z,11.30
2022-11-07T17:17:18.443Z,11.20
2022-11-07T17:19:45.963Z,11.10
2022-11-07T17:22:14.170Z,11.10
2022-11-07T17:24:45.190Z,11.00
2022-11-07T17:27:21.722Z,11.10
2022-11-07T17:29:50.321Z,11.10
2022-11-07T17:32:18.243Z,11.10
2022-11-07T17:34:46.717Z,11.00
2022-11-07T17:37:19.960Z,10.90
2022-11-07T17:39:48.272Z,10.80
2022-11-07T17:42:15.746Z,10.70
2022-11-07T17:44:43.360Z,10.70
2022-11-07T17:47:28.830Z,10.60
2022-11-07T17:49:57.067Z,10.60
2022-11-07T17:52:24.489Z,10.50
2022-11-07T17:54:52.448Z,10.50
2022-11-07T17:57:19.793Z,10.50
2022-11-07T17:59:47.176Z,10.50
2022-11-07T18:02:19.557Z,10.60
2022-11-07T18:04:47.149Z,10.60
2022-11-07T18:07:14.584Z,10.60
2022-11-07T18:09:42.933Z,10.60
2022-11-07T18:12:10.784Z,10.60
2022-11-07T18:14:38.748Z,10.60
2022-11-07T18:17:06.529Z,10.70
2022-11-07T18:19:34.053Z,10.70
2022-11-07T18:22:01.465Z,10.80
2022-11-07T18:24:28.852Z,10.90
2022-11-07T18:26:56.280Z,10.90
2022-11-07T18:29:25.005Z,11.00
2022-11-07T18:31:52.500Z,11.10
2022-11-07T18:34:20.587Z,11.10
2022-11-07T18:36:47.968Z,11.10
2022-11-07T18:39:18.299Z,11.10
2022-11-07T18:41:46.016Z,11.00
2022-11-07T18:44:13.555Z,11.00
2022-11-07T18:46:41.726Z,11.10
2022-11-07T18:49:10.345Z,11.00
2022-11-07T18:51:37.654Z,11.00
2022-11-07T18:54:05.682Z,11.00
2022-11-07T18:56:33.758Z,10.80
2022-11-07T18:59:01.122Z,10.70
2022-11-07T19:01:30.944Z,10.60
2022-11-07T19:04:00.465Z,10.50
2022-11-07T19:06:29.991Z,10.30
2022-11-07T19:08:57.770Z,10.20
2022-11-07T19:11:29.448Z,10.10
2022-11-07T19:14:00.441Z,9.90
2022-11-07T19:16:28.200Z,9.90
2022-11-07T19:18:55.542Z,9.60
2022-11-07T19:21:23.604Z,9.50
2022-11-07T19:23:51.118Z,9.50
2022-11-07T19:26:21.772Z,9.40
2022-11-07T19:28:49.237Z,9.30
2022-11-07T19:31:16.809Z,9.10
2022-11-07T19:33:44.206Z,8.90
2022-11-07T19:36:17.158Z,8.70
2022-11-07T19:38:45.224Z,8.60
2022-11-07T19:41:13.770Z,8.40
2022-11-07T19:43:42.668Z,8.20
2022-11-07T19:46:14.471Z,8.10
2022-11-07T19:48:42.826Z,8.00
2022-11-07T19:51:21.023Z,7.90
2022-11-07T19:53:57.367Z,7.80
2022-11-07T19:56:26.623Z,7.90
2022-11-07T19:58:54.780Z,7.80
2022-11-07T20:01:27.948Z,7.80
2022-11-07T20:03:56.420Z,7.70
2022-11-07T20:06:30.443Z,7.70
2022-11-07T20:08:58.538Z,7.70
2022-11-07T20:11:26.215Z,7.80
2022-11-07T20:13:58.728Z,7.80
2022-11-07T20:16:29.262Z,8.20
2022-11-07T20:18:56.595Z,8.20
2022-11-07T20:21:24.553Z,8.30
2022-11-07T20:23:57.163Z,8.20
2022-11-07T20:26:25.922Z,8.40
2022-11-07T20:28:53.747Z,8.30
2022-11-07T20:31:26.980Z,8.30
2022-11-07T20:33:56.886Z,8.20
2022-11-07T20:36:24.232Z,8.20
2022-11-07T20:38:53.350Z,8.20
2022-11-07T20:41:23.224Z,8.30
2022-11-07T20:43:55.463Z,8.20
2022-11-07T20:46:23.064Z,8.20
2022-11-07T20:48:50.387Z,8.20
2022-11-07T20:51:20.655Z,8.10
2022-11-07T20:53:50.658Z,8.10
2022-11-07T20:56:20.040Z,8.00
2022-11-07T20:58:48.038Z,7.90
2022-11-07T21:01:19.065Z,7.90
2022-11-07T21:03:47.277Z,7.80
2022-11-07T21:06:14.819Z,7.80
2022-11-07T21:08:44.739Z,7.70
2022-11-07T21:11:13.061Z,7.60
2022-11-07T21:13:41.485Z,7.60
2022-11-07T21:16:09.937Z,7.70
2022-11-07T21:18:38.212Z,7.60
2022-11-07T21:21:10.718Z,7.50
2022-11-07T21:23:38.930Z,7.50
2022-11-07T21:26:13.535Z,7.50
2022-11-07T21:28:40.963Z,7.50
2022-11-07T21:31:15.008Z,7.60
2022-11-07T21:33:42.525Z,7.60
2022-11-07T21:36:16.366Z,7.60
2022-11-07T21:38:45.203Z,7.80
2022-11-07T21:41:13.891Z,7.70
2022-11-07T21:43:41.298Z,7.70
2022-11-07T21:46:14.387Z,7.70
2022-11-07T21:48:42.675Z,7.60
2022-11-07T21:51:18.884Z,7.60
2022-11-07T21:53:47.716Z,7.60
2022-11-07T21:56:36.982Z,7.60
2022-11-07T21:59:07.819Z,7.60
2022-11-07T22:01:36.400Z,7.80
2022-11-07T22:04:09.223Z,7.80
2022-11-07T22:06:39.850Z,7.80
2022-11-07T22:09:09.978Z,7.70
2022-11-07T22:11:37.397Z,7.70
2022-11-07T22:14:05.214Z,7.70
2022-11-07T22:16:32.711Z,7.60
2022-11-07T22:19:00.481Z,7.50
2022-11-07T22:21:28.300Z,7.40
2022-11-07T22:23:56.228Z,7.30
2022-11-07T22:26:26.002Z,7.20
2022-11-07T22:28:54.097Z,7.00
2022-11-07T22:31:28.598Z,7.00
2022-11-07T22:33:57.527Z,6.90
2022-11-07T22:36:25.225Z,6.90
2022-11-07T22:38:52.882Z,7.10
2022-11-07T22:41:23.008Z,7.40
2022-11-07T22:43:50.703Z,7.60
2022-11-07T22:46:20.872Z,7.60
2022-11-07T22:48:49.004Z,7.70
2022-11-07T22:51:19.979Z,7.70
2022-11-07T22:53:47.901Z,7.90
2022-11-07T22:56:19.566Z,8.00
2022-11-07T22:58:47.574Z,8.10
2022-11-07T23:01:18.109Z,8.10
2022-11-07T23:03:46.584Z,8.40
2022-11-07T23:06:14.216Z,8.20
2022-11-07T23:08:41.557Z,8.30
2022-11-07T23:11:44.775Z,8.20
2022-11-07T23:14:03.437Z,8.20
2022-11-07T23:16:33.722Z,8.20
2022-11-07T23:19:03.593Z,8.10
2022-11-07T23:21:31.470Z,8.10
2022-11-07T23:24:00.283Z,8.20
2022-11-07T23:26:35.346Z,8.20
2022-11-07T23:29:11.141Z,8.20
2022-11-07T23:31:43.249Z,9.10
2022-11-07T23:34:11.118Z,9.40
2022-11-07T23:36:44.314Z,9.30
2022-11-07T23:39:15.616Z,9.30
2022-11-07T23:41:43.669Z,9.30
2022-11-07T23:44:11.607Z,9.40
2022-11-07T23:46:57.414Z,9.40
2022-11-07T23:49:43.317Z,9.40
2022-11-07T23:52:11.141Z,9.40
2022-11-07T23:54:56.909Z,9.40
2022-11-07T23:57:24.488Z,9.40
